Time;durP1;ratioP1;P1;durP2;ratioP2;P2;SDS_P1;SDS_P2;PMS_P1;PMS_P2;Temp;Humidity;BMP_temperature;BMP_pressure;BME280_temperature;BME280_humidity;BME280_pressure;Samples;Min_cycle;Max_cycle;Signal;HPM_P1;HPM_P2
2021/01/17 00:00:51;;;;;;;5.10;3.73;;;;;;;;;;4897355;28;169389;-66
2021/01/17 00:03:19;;;;;;;4.43;3.63;;;;;;;;;;4901246;28;168113;-66
2021/01/17 00:05:47;;;;;;;16.13;4.33;;;;;;;;;;4907016;28;169270;-66
2021/01/17 00:08:18;;;;;;;8.47;3.63;;;;;;;;;;4899213;28;169703;-66
2021/01/17 00:10:44;;;;;;;6.00;3.90;;;;;;;;;;4901210;28;172828;-66
2021/01/17 00:13:12;;;;;;;7.57;4.50;;;;;;;;;;4905651;28;169975;-66
2021/01/17 00:15:39;;;;;;;7.10;4.30;;;;;;;;;;4910766;28;168480;-66
2021/01/17 00:18:06;;;;;;;4.23;3.77;;;;;;;;;;4898201;28;170506;-66
2021/01/17 00:20:33;;;;;;;4.93;3.93;;;;;;;;;;4897869;28;170176;-66
2021/01/17 00:23:01;;;;;;;6.70;4.07;;;;;;;;;;4897032;28;168951;-66
2021/01/17 00:25:27;;;;;;;4.63;4.03;;;;;;;;;;4901319;28;168915;-66
2021/01/17 00:28:00;;;;;;;5.87;4.07;;;;;;;;;;4898045;28;168067;-66
2021/01/17 00:30:29;;;;;;;6.10;3.80;;;;;;;;;;4911082;28;171030;-66
2021/01/17 00:32:56;;;;;;;10.53;4.20;;;;;;;;;;4896994;28;169304;-66
2021/01/17 00:35:23;;;;;;;4.80;3.90;;;;;;;;;;4909563;28;170998;-66
2021/01/17 00:37:51;;;;;;;7.97;3.80;;;;;;;;;;4898512;28;169695;-67
2021/01/17 00:40:19;;;;;;;3.77;3.43;;;;;;;;;;4897420;28;169342;-67
2021/01/17 00:42:50;;;;;;;6.30;3.70;;;;;;;;;;4901876;28;168440;-67
2021/01/17 00:45:17;;;;;;;6.37;4.10;;;;;;;;;;4903569;28;170742;-67
2021/01/17 00:47:47;;;;;;;7.43;4.00;;;;;;;;;;4906996;28;169648;-67
2021/01/17 00:50:15;;;;;;;11.37;3.87;;;;;;;;;;4899301;28;169410;-67
2021/01/17 00:52:42;;;;;;;12.27;3.57;;;;;;;;;;4896135;28;171151;-67
2021/01/17 00:55:10;;;;;;;7.70;4.07;;;;;;;;;;4895074;28;169100;-66
2021/01/17 00:57:38;;;;;;;7.53;3.80;;;;;;;;;;4905070;28;171552;-66
2021/01/17 01:00:12;;;;;;;4.87;3.60;;;;;;;;;;4895536;28;174656;-67
2021/01/17 01:02:55;;;;;;;6.27;3.63;;;;;;;;;;4904720;28;174262;-66
2021/01/17 01:05:24;;;;;;;8.57;3.50;;;;;;;;;;4904563;28;168279;-66
2021/01/17 01:07:51;;;;;;;5.20;3.57;;;;;;;;;;4900487;28;169780;-67
2021/01/17 01:10:19;;;;;;;8.90;3.97;;;;;;;;;;4899647;28;169439;-67
2021/01/17 01:12:45;;;;;;;6.90;3.73;;;;;;;;;;4906550;28;169264;-67
2021/01/17 01:15:12;;;;;;;6.07;3.23;;;;;;;;;;4900837;28;168988;-67
2021/01/17 01:17:39;;;;;;;13.97;3.87;;;;;;;;;;4904275;28;167513;-67
2021/01/17 01:20:06;;;;;;;4.90;3.67;;;;;;;;;;4913410;28;169552;-66
2021/01/17 01:22:32;;;;;;;7.67;4.10;;;;;;;;;;4897836;28;168904;-66
2021/01/17 01:24:59;;;;;;;7.93;3.87;;;;;;;;;;4895499;28;170726;-67
2021/01/17 01:27:26;;;;;;;13.37;4.53;;;;;;;;;;4900569;28;169678;-67
2021/01/17 01:29:53;;;;;;;5.30;3.90;;;;;;;;;;4902906;28;169213;-66
2021/01/17 01:32:20;;;;;;;5.47;3.93;;;;;;;;;;4895882;28;168677;-66
2021/01/17 01:34:47;;;;;;;5.90;4.20;;;;;;;;;;4909787;28;168406;-66
2021/01/17 01:37:14;;;;;;;6.60;4.10;;;;;;;;;;4906934;28;168511;-66
2021/01/17 01:39:41;;;;;;;8.27;4.00;;;;;;;;;;4906061;28;169795;-66
2021/01/17 01:42:08;;;;;;;6.70;3.93;;;;;;;;;;4897213;28;168744;-66
2021/01/17 01:44:35;;;;;;;14.60;4.23;;;;;;;;;;4896011;28;169036;-66
2021/01/17 01:47:03;;;;;;;5.63;4.20;;;;;;;;;;4895006;28;169146;-67
2021/01/17 01:49:30;;;;;;;6.57;4.53;;;;;;;;;;4894066;28;170971;-67
2021/01/17 01:52:00;;;;;;;7.70;4.17;;;;;;;;;;4898928;28;170476;-67
2021/01/17 01:54:26;;;;;;;4.53;3.93;;;;;;;;;;4895541;28;169014;-67
2021/01/17 01:56:53;;;;;;;6.50;4.30;;;;;;;;;;4908762;28;169067;-67
2021/01/17 01:59:21;;;;;;;10.20;4.70;;;;;;;;;;4901665;28;170914;-67
2021/01/17 02:01:48;;;;;;;8.27;4.40;;;;;;;;;;4895330;28;169203;-67
2021/01/17 02:04:15;;;;;;;8.27;4.60;;;;;;;;;;4894032;28;169607;-67
2021/01/17 02:06:49;;;;;;;5.30;3.87;;;;;;;;;;4897587;28;167965;-67
2021/01/17 02:09:26;;;;;;;9.23;4.47;;;;;;;;;;4896011;28;169340;-66
2021/01/17 02:11:58;;;;;;;7.40;4.40;;;;;;;;;;4900245;28;168926;-66
2021/01/17 02:14:38;;;;;;;7.77;4.40;;;;;;;;;;4895170;28;170263;-67
2021/01/17 02:17:06;;;;;;;5.90;4.30;;;;;;;;;;4900396;28;169089;-66
2021/01/17 02:19:36;;;;;;;7.87;4.50;;;;;;;;;;4895250;28;171700;-67
2021/01/17 02:22:03;;;;;;;6.80;4.23;;;;;;;;;;4895122;28;170542;-67
2021/01/17 02:24:33;;;;;;;6.23;4.43;;;;;;;;;;4898045;28;168430;-66
2021/01/17 02:27:03;;;;;;;5.57;3.90;;;;;;;;;;4896586;28;169026;-67
2021/01/17 02:29:30;;;;;;;6.47;4.53;;;;;;;;;;4913110;28;169615;-66
2021/01/17 02:32:00;;;;;;;9.40;4.53;;;;;;;;;;4894507;28;168237;-66
2021/01/17 02:34:29;;;;;;;11.10;4.87;;;;;;;;;;4899575;28;168478;-66
2021/01/17 02:37:04;;;;;;;9.07;4.57;;;;;;;;;;4895665;28;169695;-66
2021/01/17 02:39:49;;;;;;;5.83;4.67;;;;;;;;;;4908405;28;173613;-66
2021/01/17 02:42:16;;;;;;;11.47;5.00;;;;;;;;;;4901087;28;169905;-66
2021/01/17 02:44:43;;;;;;;8.87;4.90;;;;;;;;;;4898270;28;168322;-67
2021/01/17 02:47:10;;;;;;;7.60;4.50;;;;;;;;;;4902214;28;169554;-67
2021/01/17 02:49:37;;;;;;;19.43;5.23;;;;;;;;;;4902501;28;169857;-67
2021/01/17 02:52:05;;;;;;;9.70;5.07;;;;;;;;;;4896728;28;169418;-66
2021/01/17 02:54:38;;;;;;;5.77;4.97;;;;;;;;;;4910836;28;168338;-66
2021/01/17 02:57:06;;;;;;;9.47;5.20;;;;;;;;;;4895918;28;168111;-66
2021/01/17 02:59:42;;;;;;;5.53;4.70;;;;;;;;;;4899076;28;169063;-66
2021/01/17 03:02:10;;;;;;;5.97;4.83;;;;;;;;;;4911205;28;168397;-66
2021/01/17 03:04:46;;;;;;;6.03;4.60;;;;;;;;;;4908868;28;170863;-66
2021/01/17 03:07:14;;;;;;;5.97;4.83;;;;;;;;;;4895001;28;168417;-66
2021/01/17 03:09:42;;;;;;;5.73;4.67;;;;;;;;;;4905427;28;171357;-66
2021/01/17 03:12:09;;;;;;;5.70;4.63;;;;;;;;;;4893758;28;169811;-66
2021/01/17 03:14:36;;;;;;;6.70;4.70;;;;;;;;;;4898750;28;169169;-66
2021/01/17 03:17:04;;;;;;;7.13;4.97;;;;;;;;;;4895733;28;168926;-66
2021/01/17 03:19:31;;;;;;;6.03;5.17;;;;;;;;;;4895310;28;170679;-66
2021/01/17 03:21:58;;;;;;;6.07;5.17;;;;;;;;;;4895922;28;168183;-66
2021/01/17 03:24:25;;;;;;;9.30;5.07;;;;;;;;;;4894850;28;168293;-66
2021/01/17 03:26:51;;;;;;;6.17;4.93;;;;;;;;;;4898280;28;168334;-66
2021/01/17 03:29:18;;;;;;;7.37;4.60;;;;;;;;;;4917418;28;171315;-66
2021/01/17 03:31:45;;;;;;;16.27;6.03;;;;;;;;;;4906291;28;170182;-66
2021/01/17 03:34:13;;;;;;;9.13;6.10;;;;;;;;;;4897962;28;168354;-66
2021/01/17 03:36:39;;;;;;;11.87;6.10;;;;;;;;;;4899209;28;168474;-67
2021/01/17 03:39:07;;;;;;;11.67;4.67;;;;;;;;;;4905758;28;169625;-67
2021/01/17 03:41:33;;;;;;;12.17;5.73;;;;;;;;;;4904807;28;169181;-67
2021/01/17 03:44:00;;;;;;;7.20;5.37;;;;;;;;;;4898206;28;168860;-67
2021/01/17 03:46:31;;;;;;;10.87;6.00;;;;;;;;;;4906202;28;168216;-67
2021/01/17 03:48:58;;;;;;;8.07;5.83;;;;;;;;;;4898146;28;170706;-67
2021/01/17 03:51:25;;;;;;;11.17;5.50;;;;;;;;;;4903363;28;170047;-67
2021/01/17 03:53:52;;;;;;;18.67;6.70;;;;;;;;;;4917358;28;170092;-67
2021/01/17 03:56:18;;;;;;;10.00;5.47;;;;;;;;;;4903820;28;168280;-67
2021/01/17 03:58:45;;;;;;;17.03;5.57;;;;;;;;;;4917606;28;170528;-67
2021/01/17 04:01:13;;;;;;;21.17;7.70;;;;;;;;;;4915493;28;168567;-67
2021/01/17 04:03:40;;;;;;;12.07;5.93;;;;;;;;;;4915656;28;169638;-67
2021/01/17 04:06:06;;;;;;;11.90;5.90;;;;;;;;;;4898860;28;168479;-67
2021/01/17 04:08:33;;;;;;;7.17;5.43;;;;;;;;;;4897014;28;169178;-67
2021/01/17 04:11:00;;;;;;;7.27;5.63;;;;;;;;;;4909759;28;168611;-67
2021/01/17 04:13:27;;;;;;;7.80;5.80;;;;;;;;;;4905351;28;169716;-67
2021/01/17 04:15:54;;;;;;;7.30;5.47;;;;;;;;;;4916129;28;168521;-67
2021/01/17 04:18:20;;;;;;;7.17;5.27;;;;;;;;;;4900646;28;171889;-67
2021/01/17 04:20:48;;;;;;;12.70;5.47;;;;;;;;;;4897436;28;169284;-67
2021/01/17 04:23:15;;;;;;;8.97;5.60;;;;;;;;;;4900043;28;168919;-67
2021/01/17 04:25:41;;;;;;;9.27;5.87;;;;;;;;;;4910993;28;169136;-67
2021/01/17 04:28:10;;;;;;;20.47;6.57;;;;;;;;;;4917315;28;169243;-67
2021/01/17 04:30:37;;;;;;;11.53;5.60;;;;;;;;;;4900882;28;169549;-67
2021/01/17 04:33:04;;;;;;;11.77;6.00;;;;;;;;;;4896744;28;168369;-67
2021/01/17 04:35:31;;;;;;;7.80;5.20;;;;;;;;;;4901285;28;168186;-67
2021/01/17 04:37:58;;;;;;;10.90;6.67;;;;;;;;;;4896853;28;169338;-67
2021/01/17 04:40:29;;;;;;;6.90;5.10;;;;;;;;;;4904204;28;168895;-67
2021/01/17 04:43:09;;;;;;;7.53;5.23;;;;;;;;;;4911315;28;170083;-67
2021/01/17 04:45:36;;;;;;;7.60;5.97;;;;;;;;;;4896182;28;168857;-67
2021/01/17 04:48:04;;;;;;;8.63;5.87;;;;;;;;;;4900894;28;169649;-67
2021/01/17 04:50:32;;;;;;;10.53;5.23;;;;;;;;;;4896991;28;168668;-67
2021/01/17 04:53:00;;;;;;;19.97;6.57;;;;;;;;;;4897752;28;168441;-67
2021/01/17 04:55:28;;;;;;;11.47;6.13;;;;;;;;;;4894955;28;169467;-67
2021/01/17 04:58:05;;;;;;;16.93;6.90;;;;;;;;;;4895505;28;169660;-67
2021/01/17 05:00:33;;;;;;;7.87;5.63;;;;;;;;;;4897853;28;168030;-67
2021/01/17 05:03:14;;;;;;;11.63;5.33;;;;;;;;;;4899662;28;169119;-67
2021/01/17 05:06:01;;;;;;;11.90;5.77;;;;;;;;;;4906227;28;169860;-67
2021/01/17 05:08:28;;;;;;;25.07;6.93;;;;;;;;;;4905441;28;171384;-67
2021/01/17 05:10:59;;;;;;;17.87;6.23;;;;;;;;;;4897499;28;170677;-67
2021/01/17 05:13:32;;;;;;;9.43;5.67;;;;;;;;;;4906933;28;168390;-67
2021/01/17 05:16:03;;;;;;;12.67;6.57;;;;;;;;;;4915993;28;169249;-67
2021/01/17 05:18:30;;;;;;;10.30;5.87;;;;;;;;;;4896312;28;170965;-67
2021/01/17 05:20:58;;;;;;;9.50;5.50;;;;;;;;;;4896330;28;168839;-67
2021/01/17 05:23:27;;;;;;;13.00;6.10;;;;;;;;;;4907633;28;168544;-67
2021/01/17 05:25:56;;;;;;;14.90;6.17;;;;;;;;;;4898511;28;167462;-67
2021/01/17 05:28:23;;;;;;;17.00;6.80;;;;;;;;;;4906696;28;169195;-67
2021/01/17 05:30:50;;;;;;;8.37;5.40;;;;;;;;;;4896135;28;170012;-67
2021/01/17 05:33:18;;;;;;;8.17;5.60;;;;;;;;;;4896694;28;169978;-67
2021/01/17 05:35:45;;;;;;;8.60;5.67;;;;;;;;;;4897219;28;168979;-67
2021/01/17 05:38:14;;;;;;;7.20;5.77;;;;;;;;;;4897173;28;170402;-68
2021/01/17 05:40:40;;;;;;;9.20;6.33;;;;;;;;;;4896349;28;168947;-67
2021/01/17 05:43:10;;;;;;;19.10;6.50;;;;;;;;;;4895747;28;168442;-67
2021/01/17 05:45:37;;;;;;;6.93;5.77;;;;;;;;;;4896367;28;168491;-67
2021/01/17 05:48:10;;;;;;;12.77;6.13;;;;;;;;;;4901535;28;169624;-67
2021/01/17 05:50:38;;;;;;;10.67;6.60;;;;;;;;;;4907051;28;168510;-66
2021/01/17 05:53:06;;;;;;;7.20;5.67;;;;;;;;;;4901000;28;168703;-67
2021/01/17 05:55:33;;;;;;;7.93;5.83;;;;;;;;;;4899034;28;169226;-66
2021/01/17 05:58:18;;;;;;;7.90;5.70;;;;;;;;;;4895653;28;170940;-66
2021/01/17 06:00:45;;;;;;;13.07;6.30;;;;;;;;;;4896066;28;170365;-66
2021/01/17 06:03:12;;;;;;;13.43;6.80;;;;;;;;;;4907314;28;168991;-67
2021/01/17 06:05:39;;;;;;;9.60;5.80;;;;;;;;;;4895908;28;169794;-66
2021/01/17 06:08:06;;;;;;;9.00;6.23;;;;;;;;;;4896669;28;170159;-66
2021/01/17 06:10:34;;;;;;;9.03;6.10;;;;;;;;;;4896782;28;168649;-66
2021/01/17 06:13:01;;;;;;;7.83;5.80;;;;;;;;;;4911970;28;169522;-66
2021/01/17 06:15:32;;;;;;;32.93;7.70;;;;;;;;;;4915799;28;168441;-66
2021/01/17 06:18:00;;;;;;;19.53;7.00;;;;;;;;;;4910483;28;169433;-66
2021/01/17 06:20:30;;;;;;;12.03;6.20;;;;;;;;;;4914625;28;170012;-66
2021/01/17 06:23:00;;;;;;;21.77;6.90;;;;;;;;;;4899057;28;170627;-67
2021/01/17 06:25:28;;;;;;;10.60;6.10;;;;;;;;;;4906194;28;168691;-67
2021/01/17 06:28:07;;;;;;;12.33;6.27;;;;;;;;;;4912790;28;169746;-66
2021/01/17 06:30:34;;;;;;;13.73;6.10;;;;;;;;;;4915161;28;168456;-67
2021/01/17 06:33:02;;;;;;;15.77;6.80;;;;;;;;;;4901040;28;168857;-66
2021/01/17 06:35:30;;;;;;;18.63;7.67;;;;;;;;;;4895683;28;168588;-66
2021/01/17 06:37:56;;;;;;;16.57;6.93;;;;;;;;;;4896420;28;169345;-67
2021/01/17 06:40:32;;;;;;;12.63;6.37;;;;;;;;;;4910316;28;168826;-66
2021/01/17 06:42:59;;;;;;;18.63;5.97;;;;;;;;;;4906504;28;168523;-66
2021/01/17 06:45:37;;;;;;;11.60;6.33;;;;;;;;;;4915092;28;168522;-67
2021/01/17 06:48:04;;;;;;;12.00;6.33;;;;;;;;;;4900712;28;171283;-66
2021/01/17 06:50:31;;;;;;;17.63;7.00;;;;;;;;;;4895638;28;169811;-66
2021/01/17 06:53:01;;;;;;;12.00;6.30;;;;;;;;;;4907660;28;168673;-66
2021/01/17 06:55:28;;;;;;;11.97;7.13;;;;;;;;;;4901305;28;168479;-67
2021/01/17 06:57:55;;;;;;;29.17;7.90;;;;;;;;;;4896015;28;169743;-67
2021/01/17 07:00:22;;;;;;;10.83;6.10;;;;;;;;;;4897927;28;169147;-66
2021/01/17 07:02:53;;;;;;;9.30;6.30;;;;;;;;;;4912012;28;168493;-66
2021/01/17 07:05:19;;;;;;;18.77;7.50;;;;;;;;;;4918700;28;168197;-66
2021/01/17 07:07:52;;;;;;;15.17;6.87;;;;;;;;;;4904944;28;169956;-66
2021/01/17 07:10:20;;;;;;;26.60;9.00;;;;;;;;;;4898780;28;173201;-66
2021/01/17 07:12:54;;;;;;;19.63;7.57;;;;;;;;;;4911928;28;170123;-66
2021/01/17 07:15:27;;;;;;;35.03;8.50;;;;;;;;;;4918918;28;169132;-67
2021/01/17 07:18:01;;;;;;;29.63;8.30;;;;;;;;;;4904556;28;169084;-66
2021/01/17 07:20:32;;;;;;;37.80;10.17;;;;;;;;;;4898903;28;168449;-66
2021/01/17 07:22:59;;;;;;;18.00;7.23;;;;;;;;;;4915474;28;169043;-67
2021/01/17 07:25:27;;;;;;;50.87;10.83;;;;;;;;;;4915450;28;168894;-66
2021/01/17 07:27:57;;;;;;;29.07;8.73;;;;;;;;;;4906948;28;169524;-66
2021/01/17 07:30:37;;;;;;;39.37;9.47;;;;;;;;;;4899561;28;168272;-66
2021/01/17 07:33:05;;;;;;;31.87;8.30;;;;;;;;;;4898706;28;168405;-66
2021/01/17 07:35:42;;;;;;;47.37;9.33;;;;;;;;;;4898512;28;168433;-67
2021/01/17 07:38:32;;;;;;;13.37;7.07;;;;;;;;;;4898055;28;171853;-67
2021/01/17 07:41:03;;;;;;;47.97;9.10;;;;;;;;;;4903126;28;169871;-67
2021/01/17 07:43:30;;;;;;;21.77;6.60;;;;;;;;;;4895922;28;171176;-67
2021/01/17 07:46:04;;;;;;;26.93;7.73;;;;;;;;;;4901936;28;169675;-67
2021/01/17 07:48:31;;;;;;;24.93;8.10;;;;;;;;;;4898328;28;169954;-67
2021/01/17 07:50:59;;;;;;;14.70;6.17;;;;;;;;;;4913269;28;169276;-66
2021/01/17 07:53:29;;;;;;;31.50;9.17;;;;;;;;;;4904838;28;170629;-66
2021/01/17 07:56:22;;;;;;;37.43;9.07;;;;;;;;;;4902217;28;167826;-67
2021/01/17 07:58:50;;;;;;;21.87;8.20;;;;;;;;;;4899845;28;170088;-67
2021/01/17 08:01:35;;;;;;;31.47;8.67;;;;;;;;;;4894702;28;168665;-67
2021/01/17 08:04:02;;;;;;;56.30;11.03;;;;;;;;;;4897635;28;170513;-67
2021/01/17 08:06:35;;;;;;;32.63;9.47;;;;;;;;;;4902070;28;169552;-67
2021/01/17 08:09:22;;;;;;;36.50;9.27;;;;;;;;;;4900153;28;171264;-67
2021/01/17 08:12:01;;;;;;;81.73;12.13;;;;;;;;;;4895141;28;168929;-67
2021/01/17 08:14:31;;;;;;;53.00;9.80;;;;;;;;;;4898188;28;169524;-67
2021/01/17 08:17:04;;;;;;;30.33;8.30;;;;;;;;;;4905498;28;169572;-67
2021/01/17 08:19:38;;;;;;;25.97;8.80;;;;;;;;;;4900305;28;169268;-67
2021/01/17 08:22:17;;;;;;;26.33;8.40;;;;;;;;;;4903220;28;170206;-67
2021/01/17 08:24:44;;;;;;;19.60;7.50;;;;;;;;;;4902773;28;168363;-67
2021/01/17 08:27:32;;;;;;;16.17;7.00;;;;;;;;;;4903541;28;168436;-67
2021/01/17 08:30:07;;;;;;;15.43;6.57;;;;;;;;;;4899559;28;171843;-67
2021/01/17 08:32:41;;;;;;;11.97;7.00;;;;;;;;;;4901984;28;170989;-67
2021/01/17 08:35:11;;;;;;;9.13;6.23;;;;;;;;;;4905744;28;169023;-67
2021/01/17 08:37:41;;;;;;;10.30;6.93;;;;;;;;;;4908725;28;168757;-67
2021/01/17 08:40:08;;;;;;;10.37;6.83;;;;;;;;;;4898193;28;170840;-66
2021/01/17 08:42:36;;;;;;;9.77;7.23;;;;;;;;;;4897365;28;170056;-67
2021/01/17 08:45:04;;;;;;;10.70;6.33;;;;;;;;;;4898364;28;168479;-67
2021/01/17 08:47:36;;;;;;;9.23;6.63;;;;;;;;;;4894790;28;167378;-67
2021/01/17 08:50:03;;;;;;;12.10;6.60;;;;;;;;;;4895474;28;170649;-67
2021/01/17 08:52:35;;;;;;;13.53;6.77;;;;;;;;;;4905164;28;168873;-67
2021/01/17 08:55:03;;;;;;;10.63;6.87;;;;;;;;;;4905511;28;171864;-67
2021/01/17 08:57:42;;;;;;;10.17;6.77;;;;;;;;;;4914456;28;169335;-67
2021/01/17 09:00:09;;;;;;;10.50;6.33;;;;;;;;;;4896567;28;170639;-67
2021/01/17 09:02:36;;;;;;;7.87;5.80;;;;;;;;;;4903845;28;169945;-67
2021/01/17 09:05:03;;;;;;;9.27;6.07;;;;;;;;;;4902448;28;169021;-67
2021/01/17 09:07:37;;;;;;;13.87;7.23;;;;;;;;;;4896064;28;169196;-67
2021/01/17 09:10:11;;;;;;;13.03;6.60;;;;;;;;;;4902229;28;169191;-67
2021/01/17 09:12:38;;;;;;;8.70;5.63;;;;;;;;;;4911640;28;172082;-67
2021/01/17 09:15:18;;;;;;;6.47;4.53;;;;;;;;;;4905179;28;169061;-67
2021/01/17 09:17:58;;;;;;;11.67;6.80;;;;;;;;;;4903186;28;169601;-67
2021/01/17 09:20:25;;;;;;;11.57;6.53;;;;;;;;;;4893179;28;172823;-68
2021/01/17 09:22:54;;;;;;;19.63;6.60;;;;;;;;;;4892885;28;170391;-68
2021/01/17 09:25:22;;;;;;;10.10;6.50;;;;;;;;;;4901917;28;169755;-67
2021/01/17 09:27:50;;;;;;;10.33;6.87;;;;;;;;;;4904105;28;168755;-67
2021/01/17 09:30:17;;;;;;;13.30;6.90;;;;;;;;;;4902769;28;169951;-68
2021/01/17 09:32:44;;;;;;;9.63;6.37;;;;;;;;;;4891351;28;169611;-68
2021/01/17 09:35:11;;;;;;;11.50;5.93;;;;;;;;;;4892680;28;168505;-67
2021/01/17 09:37:37;;;;;;;9.40;6.83;;;;;;;;;;4901458;28;169779;-67
2021/01/17 09:40:05;;;;;;;12.70;7.03;;;;;;;;;;4894256;28;169584;-68
2021/01/17 09:42:33;;;;;;;11.07;6.50;;;;;;;;;;4896858;28;168716;-68
2021/01/17 09:45:07;;;;;;;18.03;7.60;;;;;;;;;;4907673;28;170737;-68
2021/01/17 09:47:36;;;;;;;11.70;6.43;;;;;;;;;;4900267;28;171190;-67
2021/01/17 09:50:08;;;;;;;8.33;5.97;;;;;;;;;;4911170;28;170926;-68
2021/01/17 09:52:39;;;;;;;9.40;6.23;;;;;;;;;;4906994;28;169480;-68
2021/01/17 09:55:12;;;;;;;9.87;6.10;;;;;;;;;;4904314;28;169139;-68
2021/01/17 09:57:40;;;;;;;7.00;5.53;;;;;;;;;;4912894;28;168839;-68
2021/01/17 10:00:15;;;;;;;9.20;6.17;;;;;;;;;;4892522;28;170557;-68
2021/01/17 10:02:42;;;;;;;23.33;7.10;;;;;;;;;;4893087;28;169901;-68
2021/01/17 10:05:09;;;;;;;16.73;6.57;;;;;;;;;;4895728;28;168371;-69
2021/01/17 10:07:35;;;;;;;14.13;6.63;;;;;;;;;;4893214;28;169315;-68
2021/01/17 10:10:08;;;;;;;13.13;6.60;;;;;;;;;;4892584;28;170676;-69
2021/01/17 10:12:35;;;;;;;11.47;6.67;;;;;;;;;;4892365;28;169750;-69
2021/01/17 10:15:10;;;;;;;13.73;6.80;;;;;;;;;;4893578;28;168868;-69
2021/01/17 10:17:43;;;;;;;6.77;5.33;;;;;;;;;;4892889;28;169166;-69
2021/01/17 10:20:10;;;;;;;11.33;5.57;;;;;;;;;;4892541;28;169756;-69
2021/01/17 10:22:37;;;;;;;9.70;6.13;;;;;;;;;;4891838;28;169527;-69
2021/01/17 10:25:03;;;;;;;15.00;6.13;;;;;;;;;;4892480;28;168307;-69
2021/01/17 10:27:31;;;;;;;8.47;6.13;;;;;;;;;;4891855;28;169948;-69
2021/01/17 10:29:57;;;;;;;8.30;5.70;;;;;;;;;;4892248;28;169763;-69
2021/01/17 10:32:29;;;;;;;11.33;6.10;;;;;;;;;;4902888;28;170216;-69
2021/01/17 10:34:56;;;;;;;8.63;6.67;;;;;;;;;;4897718;28;172576;-69
2021/01/17 10:37:26;;;;;;;12.60;7.00;;;;;;;;;;4901256;28;170555;-69
2021/01/17 10:39:57;;;;;;;10.17;6.63;;;;;;;;;;4906662;28;171391;-69
2021/01/17 10:42:24;;;;;;;7.20;6.03;;;;;;;;;;4891568;28;169297;-70
2021/01/17 10:44:55;;;;;;;6.13;5.40;;;;;;;;;;4904960;28;169010;-69
2021/01/17 10:47:41;;;;;;;9.37;6.33;;;;;;;;;;4901481;28;170607;-70
2021/01/17 10:50:10;;;;;;;9.23;6.47;;;;;;;;;;4909433;28;170444;-69
2021/01/17 10:52:49;;;;;;;8.10;6.17;;;;;;;;;;4902277;28;168786;-70
2021/01/17 10:55:18;;;;;;;8.13;6.57;;;;;;;;;;4893160;28;169398;-70
2021/01/17 10:57:45;;;;;;;7.17;6.03;;;;;;;;;;4891853;28;168590;-70
2021/01/17 11:00:12;;;;;;;9.33;6.10;;;;;;;;;;4903606;28;170273;-70
2021/01/17 11:02:39;;;;;;;11.27;6.73;;;;;;;;;;4901850;28;170975;-70
2021/01/17 11:05:06;;;;;;;10.47;6.20;;;;;;;;;;4891823;28;169052;-71
2021/01/17 11:07:36;;;;;;;8.27;6.60;;;;;;;;;;4892857;28;168491;-70
2021/01/17 11:10:14;;;;;;;8.90;7.07;;;;;;;;;;4896154;28;170274;-70
2021/01/17 11:12:41;;;;;;;9.67;6.83;;;;;;;;;;4895113;28;169994;-70
2021/01/17 11:15:12;;;;;;;8.60;6.37;;;;;;;;;;4894197;28;169853;-71
2021/01/17 11:17:57;;;;;;;10.93;7.60;;;;;;;;;;4894160;28;168581;-71
2021/01/17 11:20:33;;;;;;;11.37;9.27;;;;;;;;;;4902429;28;169767;-71
2021/01/17 11:23:01;;;;;;;8.30;6.27;;;;;;;;;;4900905;28;169698;-71
2021/01/17 11:25:28;;;;;;;8.37;6.23;;;;;;;;;;4906994;28;170991;-71
2021/01/17 11:28:06;;;;;;;11.67;6.80;;;;;;;;;;4900324;28;170209;-71
2021/01/17 11:30:34;;;;;;;10.13;7.10;;;;;;;;;;4897166;28;168540;-71
2021/01/17 11:33:11;;;;;;;10.00;7.03;;;;;;;;;;4898867;28;169037;-71
2021/01/17 11:35:40;;;;;;;12.43;7.30;;;;;;;;;;4906400;28;169165;-71
2021/01/17 11:38:09;;;;;;;11.40;6.60;;;;;;;;;;4899382;28;169956;-71
2021/01/17 11:40:36;;;;;;;14.40;8.10;;;;;;;;;;4902192;28;171749;-71
2021/01/17 11:43:04;;;;;;;15.10;8.80;;;;;;;;;;4893249;28;168290;-72
2021/01/17 11:45:31;;;;;;;12.97;8.67;;;;;;;;;;4902292;28;168374;-71
2021/01/17 11:47:59;;;;;;;9.33;6.77;;;;;;;;;;4913262;28;168523;-71
2021/01/17 11:50:26;;;;;;;10.27;7.43;;;;;;;;;;4898349;28;171705;-71
2021/01/17 11:53:11;;;;;;;10.73;7.03;;;;;;;;;;4910884;28;169443;-71
2021/01/17 11:55:41;;;;;;;11.07;6.67;;;;;;;;;;4904856;28;168561;-71
2021/01/17 11:58:08;;;;;;;10.70;6.67;;;;;;;;;;4905341;28;169954;-71
2021/01/17 12:00:47;;;;;;;16.50;11.20;;;;;;;;;;4903713;28;175042;-71
2021/01/17 12:03:28;;;;;;;10.63;7.93;;;;;;;;;;4909511;28;170663;-71
2021/01/17 12:05:58;;;;;;;12.47;8.40;;;;;;;;;;4915883;28;169005;-71
2021/01/17 12:08:25;;;;;;;9.73;6.70;;;;;;;;;;4908736;28;167612;-71
2021/01/17 12:10:56;;;;;;;19.13;14.30;;;;;;;;;;4917532;28;169370;-71
2021/01/17 12:13:22;;;;;;;13.40;8.67;;;;;;;;;;4916030;28;170450;-71
2021/01/17 12:15:49;;;;;;;11.00;6.37;;;;;;;;;;4919033;28;170153;-71
2021/01/17 12:18:16;;;;;;;11.03;6.43;;;;;;;;;;4933872;28;168704;-71
2021/01/17 12:20:43;;;;;;;12.10;8.40;;;;;;;;;;4917839;28;170267;-71
2021/01/17 12:23:09;;;;;;;12.20;6.77;;;;;;;;;;4909161;28;168946;-71
2021/01/17 12:25:36;;;;;;;9.60;5.97;;;;;;;;;;4898428;28;168678;-71
2021/01/17 12:28:04;;;;;;;13.93;7.37;;;;;;;;;;4897742;28;168985;-71
2021/01/17 12:30:30;;;;;;;12.90;7.07;;;;;;;;;;4898080;28;169717;-71
2021/01/17 12:32:57;;;;;;;10.30;6.07;;;;;;;;;;4897589;28;168849;-70
2021/01/17 12:35:25;;;;;;;10.77;6.60;;;;;;;;;;4907853;28;169278;-71
2021/01/17 12:37:52;;;;;;;8.43;6.30;;;;;;;;;;4905504;28;169409;-71
2021/01/17 12:40:18;;;;;;;12.10;6.07;;;;;;;;;;4916563;28;171128;-71
2021/01/17 12:42:45;;;;;;;10.17;7.17;;;;;;;;;;4896210;28;170862;-71
2021/01/17 12:45:12;;;;;;;9.97;6.37;;;;;;;;;;4897798;28;168826;-71
2021/01/17 12:47:39;;;;;;;10.20;6.30;;;;;;;;;;4897031;28;168692;-71
2021/01/17 12:50:08;;;;;;;10.63;6.27;;;;;;;;;;4896893;28;170398;-71
2021/01/17 12:52:34;;;;;;;11.00;6.27;;;;;;;;;;4896407;28;168761;-71
2021/01/17 12:55:02;;;;;;;11.70;6.57;;;;;;;;;;4913759;28;168496;-71
2021/01/17 12:57:30;;;;;;;8.80;5.80;;;;;;;;;;4910466;28;169782;-71
2021/01/17 12:59:57;;;;;;;10.73;6.53;;;;;;;;;;4909209;28;170118;-71
2021/01/17 13:02:23;;;;;;;8.73;5.73;;;;;;;;;;4909061;28;169151;-71
2021/01/17 13:04:50;;;;;;;9.47;6.10;;;;;;;;;;4911404;28;170118;-71
2021/01/17 13:07:17;;;;;;;12.47;6.97;;;;;;;;;;4904279;28;169638;-71
2021/01/17 13:09:44;;;;;;;10.33;6.97;;;;;;;;;;4916860;28;170646;-71
2021/01/17 13:12:10;;;;;;;9.27;6.43;;;;;;;;;;4916352;28;168703;-71
2021/01/17 13:14:37;;;;;;;9.83;6.80;;;;;;;;;;4921142;28;168432;-71
2021/01/17 13:17:05;;;;;;;10.07;6.17;;;;;;;;;;4907419;28;169588;-71
2021/01/17 13:19:32;;;;;;;9.80;7.17;;;;;;;;;;4898182;28;169743;-71
2021/01/17 13:21:59;;;;;;;10.77;6.50;;;;;;;;;;4910173;28;168314;-71
2021/01/17 13:24:26;;;;;;;14.80;6.37;;;;;;;;;;4916400;28;169013;-72
2021/01/17 13:26:53;;;;;;;10.53;6.57;;;;;;;;;;4901185;28;168509;-71
2021/01/17 13:29:20;;;;;;;9.10;5.87;;;;;;;;;;4895836;28;171448;-71
2021/01/17 13:31:46;;;;;;;11.23;6.17;;;;;;;;;;4899714;28;170421;-71
2021/01/17 13:34:13;;;;;;;10.27;6.10;;;;;;;;;;4908959;28;168470;-71
2021/01/17 13:36:40;;;;;;;11.23;6.10;;;;;;;;;;4897057;28;168352;-71
2021/01/17 13:39:07;;;;;;;9.33;5.30;;;;;;;;;;4908322;28;170151;-71
2021/01/17 13:41:33;;;;;;;9.80;6.40;;;;;;;;;;4912357;28;168741;-71
2021/01/17 13:44:00;;;;;;;11.60;6.53;;;;;;;;;;4901858;28;168383;-71
2021/01/17 13:46:27;;;;;;;17.57;6.80;;;;;;;;;;4897006;28;167699;-71
2021/01/17 13:48:54;;;;;;;11.00;7.17;;;;;;;;;;4895800;28;169128;-71
2021/01/17 13:51:23;;;;;;;8.00;5.70;;;;;;;;;;4897451;28;169756;-71
2021/01/17 13:53:50;;;;;;;11.73;6.80;;;;;;;;;;4899360;28;170543;-71
2021/01/17 13:56:17;;;;;;;11.70;6.27;;;;;;;;;;4894843;28;170503;-71
2021/01/17 13:58:43;;;;;;;10.20;6.57;;;;;;;;;;4900123;28;169888;-71
2021/01/17 14:01:10;;;;;;;9.67;6.23;;;;;;;;;;4902892;28;171555;-71
2021/01/17 14:03:37;;;;;;;10.00;6.03;;;;;;;;;;4896017;28;168338;-71
2021/01/17 14:06:04;;;;;;;8.67;6.37;;;;;;;;;;4904556;28;168477;-71
2021/01/17 14:08:31;;;;;;;11.03;6.40;;;;;;;;;;4895060;28;170321;-71
2021/01/17 14:10:58;;;;;;;9.80;6.57;;;;;;;;;;4900458;28;168158;-71
2021/01/17 14:13:25;;;;;;;9.53;6.03;;;;;;;;;;4897890;28;168412;-72
2021/01/17 14:15:52;;;;;;;11.20;6.23;;;;;;;;;;4896604;28;168773;-71
2021/01/17 14:18:19;;;;;;;10.73;5.80;;;;;;;;;;4906491;28;172195;-71
2021/01/17 14:20:45;;;;;;;9.77;6.10;;;;;;;;;;4901679;28;171612;-72
2021/01/17 14:23:12;;;;;;;9.97;5.70;;;;;;;;;;4892430;28;169016;-71
2021/01/17 14:25:39;;;;;;;12.90;6.13;;;;;;;;;;4898784;28;172037;-71
2021/01/17 14:28:06;;;;;;;10.97;6.73;;;;;;;;;;4903053;28;169804;-71
2021/01/17 14:30:32;;;;;;;10.47;6.10;;;;;;;;;;4907260;28;170205;-71
2021/01/17 14:32:59;;;;;;;9.10;5.83;;;;;;;;;;4892209;28;168422;-71
2021/01/17 14:35:26;;;;;;;11.17;6.97;;;;;;;;;;4893830;28;168201;-71